createdAt,value
2019-06-07T00:00:40.098Z,100871.06
2019-06-07T00:03:04.876Z,100868.77
2019-06-07T00:05:33.620Z,100869.72
2019-06-07T00:08:07.849Z,100877.14
2019-06-07T00:10:36.570Z,100872.50
2019-06-07T00:13:03.722Z,100878.79
2019-06-07T00:15:32.632Z,100880.20
2019-06-07T00:18:01.580Z,100886.29
2019-06-07T00:20:30.173Z,100880.80
2019-06-07T00:22:59.090Z,100890.59
2019-06-07T00:28:08.894Z,100892.41
2019-06-07T00:30:50.790Z,100899.05
2019-06-07T00:33:11.052Z,100897.72
2019-06-07T00:35:39.044Z,100896.80
2019-06-07T00:38:07.671Z,100895.84
2019-06-07T00:40:36.605Z,100902.88
2019-06-07T00:43:05.426Z,100897.92
2019-06-07T00:45:35.134Z,100894.69
2019-06-07T00:48:04.867Z,100884.02
2019-06-07T00:50:33.499Z,100887.45
2019-06-07T00:53:27.339Z,100881.26
2019-06-07T00:55:33.620Z,100881.84
2019-06-07T00:58:02.578Z,100878.31
2019-06-07T01:00:31.740Z,100882.31
2019-06-07T01:03:00.770Z,100876.23
2019-06-07T01:05:31.635Z,100866.70
2019-06-07T01:08:01.828Z,100875.45
2019-06-07T01:10:52.188Z,100874.88
2019-06-07T01:15:39.448Z,100878.69
2019-06-07T01:20:39.076Z,100881.47
2019-06-07T01:23:51.778Z,100883.34
2019-06-07T01:25:38.749Z,100878.33
2019-06-07T01:30:45.491Z,100885.09
2019-06-07T01:35:52.536Z,100892.39
2019-06-07T01:41:01.519Z,100885.53
2019-06-07T01:43:31.070Z,100889.36
2019-06-07T01:46:00.494Z,100888.78
2019-06-07T01:48:48.197Z,100891.27
2019-06-07T01:51:00.250Z,100890.86
2019-06-07T01:53:31.381Z,100887.83
2019-06-07T01:55:59.879Z,100879.35
2019-06-07T01:58:29.233Z,100880.31
2019-06-07T02:00:58.128Z,100874.81
2019-06-07T02:03:30.683Z,100879.94
2019-06-07T02:05:57.235Z,100881.75
2019-06-07T02:08:27.392Z,100885.91
2019-06-07T02:10:57.904Z,100883.45
2019-06-07T02:13:28.902Z,100882.29
2019-06-07T02:15:57.835Z,100885.80
2019-06-07T02:18:29.108Z,100889.72
2019-06-07T02:20:57.546Z,100886.47
2019-06-07T02:23:28.290Z,100885.68
2019-06-07T02:25:57.831Z,100889.05
2019-06-07T02:28:36.542Z,100882.97
2019-06-07T02:31:00.161Z,100884.06
2019-06-07T02:33:33.468Z,100887.09
2019-06-07T02:38:38.498Z,100884.97
2019-06-07T02:41:07.552Z,100893.88
2019-06-07T02:43:37.309Z,100886.03
2019-06-07T02:46:25.024Z,100883.53
2019-06-07T02:48:43.241Z,100886.53
2019-06-07T02:53:50.184Z,100879.00
2019-06-07T02:56:48.834Z,100882.03
2019-06-07T02:58:50.175Z,100876.40
2019-06-07T03:01:19.374Z,100872.81
2019-06-07T03:03:48.538Z,100874.46
2019-06-07T03:06:19.605Z,100874.44
2019-06-07T03:08:48.345Z,100870.13
2019-06-07T03:11:17.854Z,100871.98
2019-06-07T03:13:48.010Z,100869.22
2019-06-07T03:16:23.624Z,100870.94
2019-06-07T03:19:06.280Z,100873.97
2019-06-07T03:21:42.835Z,100872.46
2019-06-07T03:24:11.821Z,100876.65
2019-06-07T03:27:31.762Z,100874.32
2019-06-07T03:29:13.769Z,100874.56
2019-06-07T03:31:47.405Z,100867.00
2019-06-07T03:34:13.988Z,100863.43
2019-06-07T03:36:43.667Z,100868.03
2019-06-07T03:39:12.412Z,100870.37
2019-06-07T03:42:02.520Z,100869.52
2019-06-07T03:44:12.712Z,100877.39
2019-06-07T03:46:42.757Z,100883.56
2019-06-07T03:49:11.551Z,100892.77
2019-06-07T03:51:40.987Z,100890.93
2019-06-07T03:54:10.275Z,100887.11
2019-06-07T03:56:41.150Z,100888.05
2019-06-07T03:59:09.937Z,100886.22
2019-06-07T04:01:41.137Z,100889.37
2019-06-07T04:04:09.784Z,100892.34
2019-06-07T04:06:42.321Z,100898.11
2019-06-07T04:11:48.497Z,100894.69
2019-06-07T04:14:18.719Z,100898.36
2019-06-07T04:16:47.403Z,100902.80
2019-06-07T04:19:16.582Z,100894.06
2019-06-07T04:21:46.039Z,100894.41
2019-06-07T04:26:53.168Z,100889.49
2019-06-07T04:29:33.133Z,100897.13
2019-06-07T04:31:52.866Z,100895.75
2019-06-07T04:34:21.607Z,100898.14
2019-06-07T04:39:37.817Z,100909.00
2019-06-07T04:42:04.546Z,100911.57
2019-06-07T04:44:39.457Z,100914.08
2019-06-07T04:47:10.818Z,100919.72
2019-06-07T04:49:44.154Z,100920.11
2019-06-07T04:54:54.042Z,100920.17
2019-06-07T04:57:23.369Z,100923.15
2019-06-07T05:02:23.816Z,100925.85
2019-06-07T05:04:53.217Z,100925.14
2019-06-07T05:07:22.233Z,100921.52
2019-06-07T05:12:30.024Z,100913.52
2019-06-07T05:14:59.840Z,100907.72
2019-06-07T05:17:31.253Z,100907.28
2019-06-07T05:20:00.428Z,100906.17
2019-06-07T05:25:07.917Z,100902.34
2019-06-07T05:27:40.411Z,100899.33
2019-06-07T05:30:50.933Z,100896.89
2019-06-07T05:32:45.977Z,100903.86
2019-06-07T05:35:14.490Z,100898.59
2019-06-07T05:37:45.836Z,100909.83
2019-06-07T05:40:21.454Z,100904.91
2019-06-07T05:42:51.162Z,100904.93
2019-06-07T05:45:31.978Z,100903.80
2019-06-07T05:48:02.805Z,100902.30
2019-06-07T05:50:43.658Z,100915.53
2019-06-07T05:53:02.414Z,100917.45
2019-06-07T05:55:32.637Z,100921.72
2019-06-07T05:58:01.887Z,100924.01
2019-06-07T06:00:38.068Z,100927.15
2019-06-07T06:03:05.714Z,100927.34
2019-06-07T06:05:36.506Z,100932.20
2019-06-07T06:08:02.559Z,100930.28
2019-06-07T06:13:11.501Z,100921.91
2019-06-07T06:15:51.610Z,100929.70
2019-06-07T06:18:11.606Z,100919.53
2019-06-07T06:21:05.353Z,100928.35
2019-06-07T06:23:11.616Z,100925.77
2019-06-07T06:25:42.708Z,100919.60
2019-06-07T06:28:12.945Z,100923.48
2019-06-07T06:30:45.908Z,100910.97
2019-06-07T06:33:30.853Z,100908.72
2019-06-07T06:35:47.390Z,100912.55
2019-06-07T06:41:14.362Z,100905.31
2019-06-07T06:43:26.662Z,100906.23
2019-06-07T06:45:55.975Z,100911.49
2019-06-07T06:48:24.677Z,100913.52
2019-06-07T06:50:53.285Z,100915.21
2019-06-07T06:53:22.219Z,100910.70
2019-06-07T06:55:51.526Z,100914.84
2019-06-07T06:58:20.155Z,100907.68
2019-06-07T07:06:23.304Z,100900.57
2019-06-07T07:08:28.279Z,100906.77
2019-06-07T07:10:57.702Z,100902.70
2019-06-07T07:13:27.361Z,100903.32
2019-06-07T07:15:58.282Z,100905.27
2019-06-07T07:18:27.092Z,100904.60
2019-06-07T07:20:57.564Z,100901.06
2019-06-07T07:23:27.235Z,100905.87
2019-06-07T07:25:59.503Z,100906.84
2019-06-07T07:28:26.506Z,100902.83
2019-06-07T07:34:20.971Z,100894.81
2019-06-07T07:36:19.009Z,100894.64
2019-06-07T07:38:33.023Z,100898.41
2019-06-07T07:41:13.810Z,100898.14
2019-06-07T07:43:32.866Z,100895.95
2019-06-07T07:46:03.542Z,100897.38
2019-06-07T07:48:33.846Z,100892.79
2019-06-07T07:53:52.346Z,100880.94
2019-06-07T07:56:11.695Z,100881.59
2019-06-07T07:58:40.299Z,100868.31
2019-06-07T08:01:11.173Z,100876.61
2019-06-07T08:03:40.427Z,100876.38
2019-06-07T08:08:51.318Z,100873.45
2019-06-07T08:11:20.529Z,100869.11
2019-06-07T08:13:50.609Z,100875.45
2019-06-07T08:16:19.729Z,100870.13
2019-06-07T08:18:52.851Z,100868.89
2019-06-07T08:21:25.799Z,100860.95
2019-06-07T08:23:56.033Z,100853.61
2019-06-07T08:26:21.412Z,100862.78
2019-06-07T08:28:53.099Z,100856.80
2019-06-07T08:31:20.417Z,100865.52
2019-06-07T08:33:52.628Z,100859.17
2019-06-07T08:36:40.381Z,100852.90
2019-06-07T08:38:58.009Z,100859.92
2019-06-07T08:41:23.528Z,100850.41
2019-06-07T08:43:55.267Z,100856.30
2019-06-07T08:46:23.714Z,100851.85
2019-06-07T08:48:53.943Z,100850.13
2019-06-07T08:51:23.386Z,100849.03
2019-06-07T08:54:08.488Z,100845.97
2019-06-07T08:56:23.132Z,100847.11
2019-06-07T08:58:59.372Z,100839.59
2019-06-07T09:04:09.900Z,100840.16
2019-06-07T09:09:14.490Z,100834.06
2019-06-07T09:11:43.784Z,100835.81
2019-06-07T09:14:12.336Z,100828.62
2019-06-07T09:16:41.382Z,100826.08
2019-06-07T09:19:11.400Z,100829.68
2019-06-07T09:21:40.642Z,100819.88
2019-06-07T09:24:11.969Z,100827.30
2019-06-07T09:26:41.790Z,100816.01
2019-06-07T09:29:12.081Z,100814.88
2019-06-07T09:31:52.467Z,100820.66
2019-06-07T09:34:15.159Z,100808.34
2019-06-07T09:36:44.637Z,100812.57
2019-06-07T09:39:13.636Z,100807.23
2019-06-07T09:41:49.667Z,100809.21
2019-06-07T09:44:23.662Z,100809.56
2019-06-07T09:46:44.989Z,100801.88
2019-06-07T09:51:51.656Z,100806.22
2019-06-07T09:55:03.257Z,100799.02
2019-06-07T09:56:51.593Z,100795.12
2019-06-07T09:59:20.581Z,100792.86
2019-06-07T10:01:52.029Z,100804.23
2019-06-07T10:07:09.922Z,100790.38
2019-06-07T10:12:04.574Z,100785.58
2019-06-07T10:14:33.734Z,100778.59
2019-06-07T10:17:03.446Z,100774.88
2019-06-07T10:19:32.043Z,100771.95
2019-06-07T10:22:01.517Z,100772.08
2019-06-07T10:24:30.477Z,100770.41
2019-06-07T10:26:59.678Z,100771.94
2019-06-07T10:29:28.342Z,100762.81
2019-06-07T10:31:57.741Z,100766.26
2019-06-07T10:34:27.519Z,100764.61
2019-06-07T10:36:56.212Z,100758.19
2019-06-07T10:39:25.333Z,100747.06
2019-06-07T10:41:54.206Z,100751.84
2019-06-07T10:44:23.789Z,100747.27
2019-06-07T10:46:52.891Z,100743.62
2019-06-07T10:52:05.050Z,100729.64
2019-06-07T10:54:34.149Z,100729.86
2019-06-07T10:57:04.855Z,100725.59
2019-06-07T10:59:33.443Z,100729.77
2019-06-07T11:02:03.448Z,100729.88
2019-06-07T11:04:32.174Z,100725.27
2019-06-07T11:09:42.517Z,100714.58
2019-06-07T11:12:15.130Z,100714.58
2019-06-07T11:14:43.970Z,100717.28
2019-06-07T11:17:13.448Z,100711.58
2019-06-07T11:19:42.471Z,100703.42
2019-06-07T11:24:49.240Z,100709.81
2019-06-07T11:27:19.114Z,100698.09
2019-06-07T11:29:48.412Z,100702.07
2019-06-07T11:32:18.738Z,100691.59
2019-06-07T11:34:48.514Z,100699.91
2019-06-07T11:37:17.390Z,100687.20
2019-06-07T11:39:46.321Z,100681.31
2019-06-07T11:44:59.137Z,100678.79
2019-06-07T11:47:30.776Z,100671.30
2019-06-07T11:49:59.356Z,100667.41
2019-06-07T11:52:28.772Z,100665.58
2019-06-07T11:54:58.040Z,100660.94
2019-06-07T11:57:26.631Z,100651.77
2019-06-07T11:59:55.785Z,100639.22
2019-06-07T12:02:24.739Z,100633.72
2019-06-07T12:04:54.077Z,100637.85
2019-06-07T12:07:22.703Z,100635.25
2019-06-07T12:09:56.367Z,100636.16
2019-06-07T12:12:22.555Z,100629.41
2019-06-07T12:17:29.044Z,100625.00
2019-06-07T12:19:58.140Z,100617.88
2019-06-07T12:25:10.200Z,100615.29
2019-06-07T12:27:39.428Z,100610.98
2019-06-07T12:32:49.026Z,100604.23
2019-06-07T12:35:19.832Z,100598.84
2019-06-07T12:37:48.954Z,100597.16
2019-06-07T12:40:27.725Z,100599.52
2019-06-07T12:42:48.950Z,100601.26
2019-06-07T12:45:41.238Z,100599.03
2019-06-07T12:47:49.282Z,100600.78
2019-06-07T12:50:21.541Z,100594.03
2019-06-07T12:52:49.106Z,100585.16
2019-06-07T12:55:20.427Z,100585.61
2019-06-07T12:57:49.302Z,100577.62
2019-06-07T13:00:18.461Z,100579.77
2019-06-07T13:02:47.155Z,100567.55
2019-06-07T13:05:17.864Z,100568.53
2019-06-07T13:07:46.551Z,100569.47
2019-06-07T13:10:17.778Z,100560.58
2019-06-07T13:12:46.985Z,100554.61
2019-06-07T13:15:18.786Z,100557.62
2019-06-07T13:17:46.968Z,100555.25
2019-06-07T13:20:16.166Z,100550.53
2019-06-07T13:22:44.822Z,100545.28
2019-06-07T13:25:16.304Z,100555.32
2019-06-07T13:27:44.853Z,100542.95
2019-06-07T13:30:13.535Z,100541.23
2019-06-07T13:32:42.185Z,100542.86
2019-06-07T13:35:12.007Z,100531.77
2019-06-07T13:37:42.140Z,100528.30
2019-06-07T13:40:11.833Z,100536.16
2019-06-07T13:45:24.162Z,100524.05
2019-06-07T13:47:53.048Z,100522.28
2019-06-07T13:50:23.899Z,100530.54
2019-06-07T13:52:53.073Z,100523.67
2019-06-07T13:55:22.000Z,100510.84
2019-06-07T13:57:50.608Z,100492.14
2019-06-07T14:00:21.130Z,100495.64
2019-06-07T14:02:50.162Z,100501.94
2019-06-07T14:05:20.814Z,100501.56
2019-06-07T14:07:50.180Z,100496.61
2019-06-07T14:10:19.432Z,100492.88
2019-06-07T14:12:48.106Z,100492.67
2019-06-07T14:15:17.100Z,100505.25
2019-06-07T14:17:46.001Z,100485.57
2019-06-07T14:20:15.910Z,100488.23
2019-06-07T14:22:45.434Z,100493.44
2019-06-07T14:25:15.136Z,100485.00
2019-06-07T14:27:43.708Z,100474.52
2019-06-07T14:32:54.816Z,100474.80
2019-06-07T14:35:24.498Z,100469.61
2019-06-07T14:37:53.236Z,100476.06
2019-06-07T14:40:23.163Z,100470.13
2019-06-07T14:45:34.351Z,100472.33
2019-06-07T14:50:46.989Z,100456.21
2019-06-07T14:53:16.806Z,100458.63
2019-06-07T14:55:46.099Z,100462.83
2019-06-07T14:58:15.782Z,100469.20
2019-06-07T15:00:48.024Z,100461.16
2019-06-07T15:03:16.860Z,100458.12
2019-06-07T15:08:23.194Z,100464.02
2019-06-07T15:10:54.754Z,100467.01
2019-06-07T15:13:23.698Z,100465.70
2019-06-07T15:15:52.391Z,100465.23
2019-06-07T15:20:58.086Z,100457.73
2019-06-07T15:23:28.817Z,100459.97
2019-06-07T15:28:38.890Z,100453.88
2019-06-07T15:31:07.955Z,100450.38
2019-06-07T15:33:38.363Z,100441.56
2019-06-07T15:36:07.223Z,100429.48
2019-06-07T15:38:37.197Z,100430.16
2019-06-07T15:41:07.211Z,100422.07
2019-06-07T15:43:37.447Z,100410.59
2019-06-07T15:46:06.507Z,100413.08
2019-06-07T15:48:36.084Z,100403.13
2019-06-07T15:51:05.149Z,100387.00
2019-06-07T15:53:39.095Z,100391.91
2019-06-07T15:56:04.157Z,100384.70
2019-06-07T15:58:33.197Z,100387.58
2019-06-07T16:01:01.916Z,100384.81
2019-06-07T16:03:31.479Z,100369.66
2019-06-07T16:08:40.764Z,100366.63
2019-06-07T16:11:11.204Z,100355.75
2019-06-07T16:13:40.998Z,100348.03
2019-06-07T16:16:10.045Z,100356.48
2019-06-07T16:18:39.685Z,100345.77
2019-06-07T16:21:08.869Z,100348.67
2019-06-07T16:23:37.887Z,100359.86
2019-06-07T16:26:06.684Z,100362.22
2019-06-07T16:28:36.281Z,100350.98
2019-06-07T16:31:04.924Z,100353.81
2019-06-07T16:33:34.694Z,100339.12
2019-06-07T16:36:03.444Z,100302.31
2019-06-07T16:38:32.462Z,100288.33
2019-06-07T16:41:02.049Z,100288.45
2019-06-07T16:43:31.102Z,100275.64
2019-06-07T16:46:00.326Z,100256.09
2019-06-07T16:48:29.486Z,100261.83
2019-06-07T16:50:58.062Z,100268.23
2019-06-07T16:53:28.767Z,100269.91
2019-06-07T16:55:58.302Z,100285.76
2019-06-07T16:58:26.979Z,100283.10
2019-06-07T17:00:55.685Z,100284.12
2019-06-07T17:03:27.670Z,100298.78
2019-06-07T17:05:56.322Z,100302.37
2019-06-07T17:08:25.165Z,100306.09
2019-06-07T17:13:34.063Z,100286.16
2019-06-07T17:16:03.550Z,100292.75
2019-06-07T17:18:32.136Z,100292.05
2019-06-07T17:21:01.219Z,100289.66
2019-06-07T17:23:30.652Z,100285.61
2019-06-07T17:25:59.358Z,100290.33
2019-06-07T17:28:28.738Z,100281.91
2019-06-07T17:33:34.938Z,100287.48
2019-06-07T17:36:03.787Z,100288.84
2019-06-07T17:38:33.506Z,100283.36
2019-06-07T17:41:02.161Z,100280.71
2019-06-07T17:43:32.130Z,100274.77
2019-06-07T17:46:01.141Z,100285.76
2019-06-07T17:51:11.522Z,100281.97
2019-06-07T17:56:18.051Z,100281.61
2019-06-07T17:58:46.716Z,100269.44
2019-06-07T18:01:15.576Z,100266.02
2019-06-07T18:03:49.545Z,100268.58
2019-06-07T18:09:03.302Z,100270.09
2019-06-07T18:11:32.411Z,100268.36
2019-06-07T18:14:10.299Z,100274.45
2019-06-07T18:16:32.430Z,100267.87
2019-06-07T18:19:01.910Z,100272.38
2019-06-07T18:21:31.100Z,100278.19
2019-06-07T18:24:00.437Z,100276.77
2019-06-07T18:26:32.097Z,100273.73
2019-06-07T18:29:00.712Z,100282.67
2019-06-07T18:34:08.945Z,100277.44
2019-06-07T18:36:37.866Z,100270.83
2019-06-07T18:39:07.626Z,100272.32
2019-06-07T18:41:36.230Z,100269.59
2019-06-07T18:46:42.442Z,100285.06
2019-06-07T18:49:11.368Z,100275.80
2019-06-07T18:51:39.987Z,100276.94
2019-06-07T18:56:46.800Z,100267.42
2019-06-07T18:59:16.022Z,100277.84
2019-06-07T19:04:28.708Z,100286.23
2019-06-07T19:06:58.656Z,100289.55
2019-06-07T19:09:27.560Z,100286.56
2019-06-07T19:11:57.281Z,100276.31
2019-06-07T19:17:03.214Z,100255.80
2019-06-07T19:19:32.204Z,100263.94
2019-06-07T19:22:01.706Z,100260.17
2019-06-07T19:27:09.310Z,100270.17
2019-06-07T19:29:37.883Z,100277.02
2019-06-07T19:34:45.043Z,100296.38
2019-06-07T19:37:14.400Z,100298.81
2019-06-07T19:42:49.720Z,100289.88
2019-06-07T19:45:30.188Z,100300.17
2019-06-07T19:50:38.264Z,100311.20
2019-06-07T19:53:07.083Z,100320.28
2019-06-07T19:58:14.731Z,100324.42
2019-06-07T20:00:43.449Z,100307.47
2019-06-07T20:03:12.746Z,100304.98
2019-06-07T20:05:41.434Z,100310.38
2019-06-07T20:10:47.627Z,100317.88
2019-06-07T20:13:19.026Z,100317.88
2019-06-07T20:15:47.175Z,100305.17
2019-06-07T20:18:15.817Z,100313.98
2019-06-07T20:20:44.503Z,100310.73
2019-06-07T20:23:17.124Z,100310.73
2019-06-07T20:25:46.120Z,100314.77
2019-06-07T20:30:44.063Z,100320.74
2019-06-07T20:33:13.172Z,100315.71
2019-06-07T20:38:22.400Z,100319.24
2019-06-07T20:40:51.595Z,100314.33
2019-06-07T20:43:20.659Z,100312.02
2019-06-07T20:45:49.792Z,100305.14
2019-06-07T20:50:56.341Z,100307.77
2019-06-07T20:53:25.233Z,100306.84
2019-06-07T20:58:31.538Z,100314.88
2019-06-07T21:01:00.616Z,100314.88
2019-06-07T21:03:29.276Z,100323.09
2019-06-07T21:05:59.288Z,100327.86
2019-06-07T21:08:28.697Z,100338.52
2019-06-07T21:10:59.848Z,100348.81
2019-06-07T21:13:29.487Z,100353.00
2019-06-07T21:15:59.889Z,100477.85
2019-06-07T21:18:28.973Z,100477.85
2019-06-07T21:20:58.497Z,100494.06
2019-06-07T21:23:27.434Z,100492.11
2019-06-07T21:25:56.708Z,100506.40
2019-06-07T21:28:25.789Z,100545.67
2019-06-07T21:30:55.372Z,100545.67
2019-06-07T21:33:24.217Z,100545.02
2019-06-07T21:35:53.226Z,100545.34
2019-06-07T21:38:22.417Z,100545.34
2019-06-07T21:40:51.679Z,100549.65
2019-06-07T21:43:20.858Z,100560.75
2019-06-07T21:46:04.405Z,100571.81
2019-06-07T21:48:21.353Z,100564.64
2019-06-07T21:50:50.852Z,100581.53
2019-06-07T21:53:20.105Z,100597.08
2019-06-07T21:55:48.971Z,100609.02
2019-06-07T21:58:18.053Z,100595.11
2019-06-07T22:01:18.855Z,100590.93
2019-06-07T22:03:47.907Z,100599.92
2019-06-07T22:06:16.539Z,100610.50
2019-06-07T22:11:25.513Z,100587.29
2019-06-07T22:13:54.373Z,100601.80
2019-06-07T22:16:29.155Z,100632.32
2019-06-07T22:18:54.500Z,100661.11
2019-06-07T22:21:23.804Z,100681.38
2019-06-07T22:23:52.457Z,100685.44
2019-06-07T22:26:21.629Z,100680.72
2019-06-07T22:28:50.986Z,100666.99
2019-06-07T22:31:20.306Z,100653.64
2019-06-07T22:33:49.062Z,100661.22
2019-06-07T22:36:19.479Z,100659.28
2019-06-07T22:38:49.438Z,100661.20
2019-06-07T22:41:18.954Z,100668.04
2019-06-07T22:43:47.776Z,100678.34
2019-06-07T22:46:16.733Z,100674.41
2019-06-07T22:48:45.514Z,100666.33
2019-06-07T22:53:51.747Z,100654.63
2019-06-07T22:56:26.523Z,100644.96
2019-06-07T22:58:55.991Z,100639.72
2019-06-07T23:01:24.572Z,100629.45
2019-06-07T23:03:53.269Z,100628.86
2019-06-07T23:06:21.962Z,100622.66
2019-06-07T23:08:50.833Z,100616.76
2019-06-07T23:11:19.765Z,100632.06
2019-06-07T23:13:48.380Z,100628.53
2019-06-07T23:16:17.786Z,100624.80
2019-06-07T23:18:46.462Z,100629.11
2019-06-07T23:21:15.917Z,100628.11
2019-06-07T23:26:23.239Z,100666.09
2019-06-07T23:28:52.206Z,100643.09
2019-06-07T23:31:20.904Z,100658.56
2019-06-07T23:33:49.904Z,100635.27
2019-06-07T23:38:56.002Z,100698.75
2019-06-07T23:44:02.544Z,100656.17
2019-06-07T23:49:17.608Z,100639.12
2019-06-07T23:51:46.658Z,100665.37
2019-06-07T23:54:15.668Z,100664.13
2019-06-07T23:56:44.314Z,100669.81
2019-06-07T23:59:14.219Z,100679.22
